sensor_id;sensor_type;location;lat;lon;timestamp;P1;durP1;ratioP1;P2;durP2;ratioP2
42666;SDS011;28280;49.646;14.130;2024-01-16T00:02:56;5.05;;;2.83;;
42666;SDS011;28280;49.646;14.130;2024-01-16T00:13:17;4.40;;;2.70;;
42666;SDS011;28280;49.646;14.130;2024-01-16T00:23:39;5.15;;;2.80;;
42666;SDS011;28280;49.646;14.130;2024-01-16T00:34:00;5.15;;;2.70;;
42666;SDS011;28280;49.646;14.130;2024-01-16T00:44:22;4.90;;;2.40;;
42666;SDS011;28280;49.646;14.130;2024-01-16T00:54:44;3.72;;;2.40;;
42666;SDS011;28280;49.646;14.130;2024-01-16T01:05:06;3.85;;;2.28;;
42666;SDS011;28280;49.646;14.130;2024-01-16T01:15:28;8.52;;;2.53;;
42666;SDS011;28280;49.646;14.130;2024-01-16T01:25:49;4.47;;;2.30;;
42666;SDS011;28280;49.646;14.130;2024-01-16T01:36:10;4.88;;;2.30;;
42666;SDS011;28280;49.646;14.130;2024-01-16T01:46:32;5.13;;;2.50;;
42666;SDS011;28280;49.646;14.130;2024-01-16T01:56:55;3.55;;;2.08;;
42666;SDS011;28280;49.646;14.130;2024-01-16T02:07:16;6.15;;;2.75;;
42666;SDS011;28280;49.646;14.130;2024-01-16T02:17:38;4.22;;;2.30;;
42666;SDS011;28280;49.646;14.130;2024-01-16T02:28:00;3.78;;;2.00;;
42666;SDS011;28280;49.646;14.130;2024-01-16T02:38:22;3.35;;;2.00;;
42666;SDS011;28280;49.646;14.130;2024-01-16T02:48:44;5.70;;;2.30;;
42666;SDS011;28280;49.646;14.130;2024-01-16T02:59:06;6.25;;;2.30;;
42666;SDS011;28280;49.646;14.130;2024-01-16T03:09:28;3.55;;;2.38;;
42666;SDS011;28280;49.646;14.130;2024-01-16T03:19:49;4.88;;;2.10;;
42666;SDS011;28280;49.646;14.130;2024-01-16T03:30:11;4.63;;;2.55;;
42666;SDS011;28280;49.646;14.130;2024-01-16T03:40:33;2.80;;;2.00;;
42666;SDS011;28280;49.646;14.130;2024-01-16T03:50:55;3.00;;;2.17;;
42666;SDS011;28280;49.646;14.130;2024-01-16T04:01:17;5.50;;;2.30;;
42666;SDS011;28280;49.646;14.130;2024-01-16T04:11:38;5.00;;;2.30;;
42666;SDS011;28280;49.646;14.130;2024-01-16T04:22:00;4.15;;;2.28;;
42666;SDS011;28280;49.646;14.130;2024-01-16T04:32:25;4.60;;;2.25;;
42666;SDS011;28280;49.646;14.130;2024-01-16T04:42:47;3.80;;;2.08;;
42666;SDS011;28280;49.646;14.130;2024-01-16T04:53:08;3.75;;;2.33;;
42666;SDS011;28280;49.646;14.130;2024-01-16T05:03:29;5.10;;;1.95;;
42666;SDS011;28280;49.646;14.130;2024-01-16T05:13:51;5.57;;;1.92;;
42666;SDS011;28280;49.646;14.130;2024-01-16T05:24:18;5.07;;;1.88;;
42666;SDS011;28280;49.646;14.130;2024-01-16T05:34:39;4.85;;;1.98;;
42666;SDS011;28280;49.646;14.130;2024-01-16T05:45:00;5.57;;;2.35;;
42666;SDS011;28280;49.646;14.130;2024-01-16T05:55:23;4.60;;;2.45;;
42666;SDS011;28280;49.646;14.130;2024-01-16T06:05:44;3.22;;;1.95;;
42666;SDS011;28280;49.646;14.130;2024-01-16T06:16:06;6.63;;;2.45;;
42666;SDS011;28280;49.646;14.130;2024-01-16T06:26:29;5.22;;;2.10;;
42666;SDS011;28280;49.646;14.130;2024-01-16T06:36:52;3.22;;;2.30;;
42666;SDS011;28280;49.646;14.130;2024-01-16T06:47:13;4.22;;;2.10;;
42666;SDS011;28280;49.646;14.130;2024-01-16T06:57:35;3.88;;;1.95;;
42666;SDS011;28280;49.646;14.130;2024-01-16T07:07:57;3.38;;;1.95;;
42666;SDS011;28280;49.646;14.130;2024-01-16T07:18:19;3.35;;;2.03;;
42666;SDS011;28280;49.646;14.130;2024-01-16T07:28:40;3.53;;;1.95;;
42666;SDS011;28280;49.646;14.130;2024-01-16T07:39:02;4.95;;;2.30;;
42666;SDS011;28280;49.646;14.130;2024-01-16T07:49:24;5.38;;;1.83;;
42666;SDS011;28280;49.646;14.130;2024-01-16T07:59:47;6.07;;;2.22;;
42666;SDS011;28280;49.646;14.130;2024-01-16T08:10:09;2.63;;;1.75;;
42666;SDS011;28280;49.646;14.130;2024-01-16T08:20:30;4.18;;;2.00;;
42666;SDS011;28280;49.646;14.130;2024-01-16T08:30:52;5.25;;;2.65;;
42666;SDS011;28280;49.646;14.130;2024-01-16T08:41:13;6.25;;;2.58;;
42666;SDS011;28280;49.646;14.130;2024-01-16T08:51:35;4.75;;;2.55;;
42666;SDS011;28280;49.646;14.130;2024-01-16T09:01:57;4.80;;;2.28;;
42666;SDS011;28280;49.646;14.130;2024-01-16T09:12:19;4.72;;;2.50;;
42666;SDS011;28280;49.646;14.130;2024-01-16T09:22:40;3.90;;;2.40;;
42666;SDS011;28280;49.646;14.130;2024-01-16T09:33:02;3.55;;;2.15;;
42666;SDS011;28280;49.646;14.130;2024-01-16T09:43:29;2.72;;;1.88;;
42666;SDS011;28280;49.646;14.130;2024-01-16T09:53:51;3.47;;;1.93;;
42666;SDS011;28280;49.646;14.130;2024-01-16T10:04:13;4.65;;;2.33;;
42666;SDS011;28280;49.646;14.130;2024-01-16T10:14:34;5.07;;;1.98;;
42666;SDS011;28280;49.646;14.130;2024-01-16T10:25:12;2.92;;;1.98;;
42666;SDS011;28280;49.646;14.130;2024-01-16T10:35:38;4.60;;;2.40;;
42666;SDS011;28280;49.646;14.130;2024-01-16T10:46:09;4.35;;;2.38;;
42666;SDS011;28280;49.646;14.130;2024-01-16T10:56:32;4.60;;;2.38;;
42666;SDS011;28280;49.646;14.130;2024-01-16T11:06:54;6.75;;;2.88;;
42666;SDS011;28280;49.646;14.130;2024-01-16T11:17:17;4.78;;;2.13;;
42666;SDS011;28280;49.646;14.130;2024-01-16T11:27:42;4.40;;;2.20;;
42666;SDS011;28280;49.646;14.130;2024-01-16T11:38:06;4.80;;;2.08;;
42666;SDS011;28280;49.646;14.130;2024-01-16T11:48:29;4.38;;;1.92;;
42666;SDS011;28280;49.646;14.130;2024-01-16T12:09:49;5.93;;;2.70;;
42666;SDS011;28280;49.646;14.130;2024-01-16T12:20:16;4.85;;;2.58;;
42666;SDS011;28280;49.646;14.130;2024-01-16T12:30:39;6.18;;;2.60;;
42666;SDS011;28280;49.646;14.130;2024-01-16T12:41:01;6.20;;;2.38;;
42666;SDS011;28280;49.646;14.130;2024-01-16T12:51:24;6.57;;;2.60;;
42666;SDS011;28280;49.646;14.130;2024-01-16T13:01:45;5.65;;;2.38;;
42666;SDS011;28280;49.646;14.130;2024-01-16T13:12:07;3.42;;;2.30;;
42666;SDS011;28280;49.646;14.130;2024-01-16T13:22:29;4.68;;;2.33;;
42666;SDS011;28280;49.646;14.130;2024-01-16T13:33:03;4.35;;;2.50;;
42666;SDS011;28280;49.646;14.130;2024-01-16T13:43:26;4.75;;;2.58;;
42666;SDS011;28280;49.646;14.130;2024-01-16T13:53:47;5.90;;;2.83;;
42666;SDS011;28280;49.646;14.130;2024-01-16T14:04:09;5.50;;;2.90;;
42666;SDS011;28280;49.646;14.130;2024-01-16T14:14:30;5.28;;;2.97;;
42666;SDS011;28280;49.646;14.130;2024-01-16T14:24:52;4.63;;;3.08;;
42666;SDS011;28280;49.646;14.130;2024-01-16T14:35:14;6.60;;;3.42;;
42666;SDS011;28280;49.646;14.130;2024-01-16T14:45:38;4.47;;;2.80;;
42666;SDS011;28280;49.646;14.130;2024-01-16T14:55:59;5.65;;;3.13;;
42666;SDS011;28280;49.646;14.130;2024-01-16T15:06:21;6.15;;;3.25;;
42666;SDS011;28280;49.646;14.130;2024-01-16T15:16:43;5.40;;;2.70;;
42666;SDS011;28280;49.646;14.130;2024-01-16T15:27:04;5.68;;;3.28;;
42666;SDS011;28280;49.646;14.130;2024-01-16T15:37:26;6.50;;;3.00;;
42666;SDS011;28280;49.646;14.130;2024-01-16T15:47:48;5.00;;;3.00;;
42666;SDS011;28280;49.646;14.130;2024-01-16T15:58:09;6.88;;;3.22;;
42666;SDS011;28280;49.646;14.130;2024-01-16T16:08:31;6.93;;;3.30;;
42666;SDS011;28280;49.646;14.130;2024-01-16T16:18:52;6.07;;;3.20;;
42666;SDS011;28280;49.646;14.130;2024-01-16T16:29:13;8.23;;;3.78;;
42666;SDS011;28280;49.646;14.130;2024-01-16T16:39:35;8.60;;;4.00;;
42666;SDS011;28280;49.646;14.130;2024-01-16T16:49:56;5.95;;;3.10;;
42666;SDS011;28280;49.646;14.130;2024-01-16T17:00:18;6.78;;;3.35;;
42666;SDS011;28280;49.646;14.130;2024-01-16T17:10:39;7.57;;;3.58;;
42666;SDS011;28280;49.646;14.130;2024-01-16T17:21:03;6.78;;;3.67;;
42666;SDS011;28280;49.646;14.130;2024-01-16T17:31:25;8.45;;;3.40;;
42666;SDS011;28280;49.646;14.130;2024-01-16T17:41:47;5.60;;;3.55;;
42666;SDS011;28280;49.646;14.130;2024-01-16T17:52:08;6.22;;;3.88;;
42666;SDS011;28280;49.646;14.130;2024-01-16T18:02:33;9.20;;;4.03;;
42666;SDS011;28280;49.646;14.130;2024-01-16T18:12:54;6.80;;;3.42;;
42666;SDS011;28280;49.646;14.130;2024-01-16T18:23:16;8.20;;;3.58;;
42666;SDS011;28280;49.646;14.130;2024-01-16T18:33:37;6.63;;;3.65;;
42666;SDS011;28280;49.646;14.130;2024-01-16T18:44:00;6.57;;;3.65;;
42666;SDS011;28280;49.646;14.130;2024-01-16T18:54:21;6.65;;;3.65;;
42666;SDS011;28280;49.646;14.130;2024-01-16T19:04:43;9.27;;;4.15;;
42666;SDS011;28280;49.646;14.130;2024-01-16T19:15:09;8.82;;;4.43;;
42666;SDS011;28280;49.646;14.130;2024-01-16T19:25:39;9.57;;;3.65;;
42666;SDS011;28280;49.646;14.130;2024-01-16T19:36:00;10.70;;;4.38;;
42666;SDS011;28280;49.646;14.130;2024-01-16T19:46:23;8.98;;;3.90;;
42666;SDS011;28280;49.646;14.130;2024-01-16T19:56:44;7.20;;;3.85;;
42666;SDS011;28280;49.646;14.130;2024-01-16T20:07:05;8.38;;;4.20;;
42666;SDS011;28280;49.646;14.130;2024-01-16T20:17:27;9.95;;;4.35;;
42666;SDS011;28280;49.646;14.130;2024-01-16T20:27:49;8.98;;;4.65;;
42666;SDS011;28280;49.646;14.130;2024-01-16T20:38:11;11.35;;;4.85;;
42666;SDS011;28280;49.646;14.130;2024-01-16T20:48:33;10.20;;;4.15;;
42666;SDS011;28280;49.646;14.130;2024-01-16T20:58:55;9.85;;;4.80;;
42666;SDS011;28280;49.646;14.130;2024-01-16T21:09:17;70.43;;;19.60;;
42666;SDS011;28280;49.646;14.130;2024-01-16T21:19:38;49.17;;;14.32;;
42666;SDS011;28280;49.646;14.130;2024-01-16T21:30:00;49.75;;;14.38;;
42666;SDS011;28280;49.646;14.130;2024-01-16T21:40:22;40.95;;;12.95;;
42666;SDS011;28280;49.646;14.130;2024-01-16T21:50:43;46.22;;;12.50;;
42666;SDS011;28280;49.646;14.130;2024-01-16T22:01:05;33.38;;;10.15;;
42666;SDS011;28280;49.646;14.130;2024-01-16T22:11:27;32.70;;;10.45;;
42666;SDS011;28280;49.646;14.130;2024-01-16T22:21:49;30.05;;;9.80;;
42666;SDS011;28280;49.646;14.130;2024-01-16T22:32:10;28.05;;;9.70;;
42666;SDS011;28280;49.646;14.130;2024-01-16T22:42:34;27.05;;;9.63;;
42666;SDS011;28280;49.646;14.130;2024-01-16T22:52:55;21.77;;;7.65;;
42666;SDS011;28280;49.646;14.130;2024-01-16T23:03:17;24.40;;;8.75;;
42666;SDS011;28280;49.646;14.130;2024-01-16T23:13:38;24.67;;;7.38;;
42666;SDS011;28280;49.646;14.130;2024-01-16T23:23:59;21.13;;;7.93;;
42666;SDS011;28280;49.646;14.130;2024-01-16T23:34:21;22.50;;;7.65;;
42666;SDS011;28280;49.646;14.130;2024-01-16T23:44:42;17.85;;;6.88;;
42666;SDS011;28280;49.646;14.130;2024-01-16T23:55:04;19.83;;;7.15;;
